Time;durP1;ratioP1;P1;durP2;ratioP2;P2;SDS_P1;SDS_P2;PMS_P1;PMS_P2;Temp;Humidity;BMP_temperature;BMP_pressure;BME280_temperature;BME280_humidity;BME280_pressure;Samples;Min_cycle;Max_cycle;Signal;HPM_P1;HPM_P2
2021/07/18 09:14:47;;;;;;;6.43;2.40;;;21.00;94.70;;;;;;5065307;28;20453;-83
2021/07/18 09:17:20;;;;;;;7.97;2.42;;;20.80;95.90;;;;;;5047670;28;20116;-86
2021/07/18 09:19:47;;;;;;;2.88;2.20;;;20.80;95.70;;;;;;5029284;28;20558;-81
2021/07/18 09:22:22;;;;;;;5.93;2.03;;;20.90;95.50;;;;;;5012563;28;20021;-81
2021/07/18 09:24:55;;;;;;;5.88;2.83;;;21.00;95.80;;;;;;5047820;28;20100;-83
2021/07/18 09:27:21;;;;;;;6.72;2.33;;;21.00;95.70;;;;;;5044688;28;20021;-84
2021/07/18 09:29:50;;;;;;;3.83;2.15;;;21.00;95.80;;;;;;5089187;28;20080;-83
2021/07/18 09:32:17;;;;;;;4.28;2.60;;;21.20;94.50;;;;;;5072504;28;20044;-83
2021/07/18 09:34:45;;;;;;;8.43;2.28;;;21.20;95.10;;;;;;5053333;28;20611;-83
2021/07/18 09:37:12;;;;;;;4.30;2.25;;;21.30;94.80;;;;;;5031843;28;20033;-83
2021/07/18 09:39:39;;;;;;;3.58;2.53;;;21.30;95.20;;;;;;5050139;28;20221;-84
2021/07/18 09:42:05;;;;;;;3.83;2.42;;;21.30;94.50;;;;;;5032592;28;20029;-82
2021/07/18 09:44:41;;;;;;;3.08;2.08;;;21.40;95.20;;;;;;5056762;28;20040;-84
2021/07/18 09:47:07;;;;;;;10.10;2.67;;;21.50;95.50;;;;;;5032130;28;20033;-83
2021/07/18 09:49:33;;;;;;;7.65;2.53;;;21.40;95.70;;;;;;5022010;28;20036;-85
2021/07/18 09:52:20;;;;;;;3.95;2.40;;;21.50;96.00;;;;;;5038821;28;20032;-84
2021/07/18 09:54:50;;;;;;;3.88;2.35;;;21.50;95.60;;;;;;5065438;28;20029;-83
2021/07/18 09:57:30;;;;;;;3.80;2.50;;;21.60;94.70;;;;;;5048050;28;20079;-85
2021/07/18 09:59:56;;;;;;;7.38;2.45;;;21.70;93.20;;;;;;5033202;28;20030;-84
2021/07/18 10:02:29;;;;;;;5.63;2.40;;;21.70;94.70;;;;;;5009789;28;20052;-85
2021/07/18 10:04:55;;;;;;;3.72;2.20;;;21.70;94.20;;;;;;5027808;28;20032;-85
2021/07/18 10:07:22;;;;;;;3.80;2.20;;;21.80;94.90;;;;;;5033030;28;20037;-84
2021/07/18 10:09:54;;;;;;;3.45;2.38;;;21.80;95.10;;;;;;5053517;28;20060;-84
2021/07/18 10:12:20;;;;;;;3.90;1.98;;;21.90;94.90;;;;;;5033774;28;20029;-85
2021/07/18 10:14:48;;;;;;;3.75;2.30;;;21.90;94.80;;;;;;5055358;28;20093;-83
2021/07/18 10:17:14;;;;;;;5.80;2.92;;;22.00;94.90;;;;;;5022745;28;20034;-82
2021/07/18 10:19:40;;;;;;;7.28;2.50;;;22.00;94.20;;;;;;5025440;28;20021;-83
2021/07/18 10:22:06;;;;;;;5.07;2.60;;;22.00;94.40;;;;;;5024208;28;20029;-84
2021/07/18 10:24:32;;;;;;;3.55;2.50;;;22.10;94.30;;;;;;5023824;28;20026;-82
2021/07/18 10:26:58;;;;;;;7.70;2.88;;;22.10;94.60;;;;;;5011045;28;20040;-82
2021/07/18 10:29:25;;;;;;;13.73;3.35;;;22.10;94.10;;;;;;5011156;28;20025;-82
2021/07/18 10:31:51;;;;;;;5.00;2.92;;;22.20;94.00;;;;;;5027874;28;20033;-82
2021/07/18 10:34:17;;;;;;;3.13;2.25;;;22.10;94.40;;;;;;5011422;28;20029;-82
2021/07/18 10:36:43;;;;;;;8.40;2.88;;;22.20;94.90;;;;;;5009238;28;20036;-82
2021/07/18 10:39:35;;;;;;;4.75;2.45;;;22.20;94.40;;;;;;5015240;28;20684;-82
2021/07/18 10:42:04;;;;;;;5.07;2.70;;;22.20;93.60;;;;;;5012730;28;20402;-82
2021/07/18 10:44:40;;;;;;;3.92;2.50;;;22.30;93.40;;;;;;5028521;28;20179;-82
2021/07/18 10:47:06;;;;;;;5.07;2.40;;;22.40;93.20;;;;;;5018015;28;20056;-82
2021/07/18 10:49:57;;;;;;;4.30;2.65;;;22.40;93.30;;;;;;5031114;28;20033;-82
2021/07/18 10:52:27;;;;;;;3.50;2.40;;;22.40;93.50;;;;;;5046881;28;20124;-82
2021/07/18 10:54:52;;;;;;;7.00;3.47;;;22.40;92.30;;;;;;5047060;28;20025;-82
2021/07/18 10:57:32;;;;;;;4.32;2.85;;;22.50;92.90;;;;;;5011986;23;21122;-81
2021/07/18 11:00:18;;;;;;;6.25;2.67;;;22.50;93.60;;;;;;4971474;28;20031;-81
2021/07/18 11:02:43;;;;;;;5.88;2.30;;;22.50;93.20;;;;;;4970334;28;20033;-80
2021/07/18 11:05:16;;;;;;;5.30;2.70;;;22.50;94.10;;;;;;4970864;28;20039;-82
2021/07/18 11:07:42;;;;;;;4.78;2.58;;;22.50;93.50;;;;;;4972619;28;20513;-81
2021/07/18 11:10:13;;;;;;;6.63;2.80;;;22.50;93.40;;;;;;4972384;28;20077;-81
2021/07/18 11:12:43;;;;;;;4.85;2.60;;;22.50;92.20;;;;;;4972656;28;20420;-81
2021/07/18 11:15:22;;;;;;;5.43;2.63;;;22.50;91.70;;;;;;4972587;28;20057;-81
2021/07/18 11:18:13;;;;;;;5.57;3.00;;;22.60;92.50;;;;;;4988135;28;20515;-81
2021/07/18 11:20:48;;;;;;;3.60;2.47;;;22.70;92.30;;;;;;4988354;28;20197;-81
2021/07/18 11:23:18;;;;;;;6.00;2.65;;;22.70;92.20;;;;;;4989799;28;20125;-81
2021/07/18 11:25:52;;;;;;;9.48;3.10;;;22.70;92.00;;;;;;4972770;28;20054;-81
2021/07/18 11:28:31;;;;;;;3.97;2.70;;;22.80;92.00;;;;;;4971942;28;20623;-82
2021/07/18 11:34:09;;;;;;;3.08;2.50;;;22.80;92.30;;;;;;4989683;28;20046;-82
2021/07/18 11:36:34;;;;;;;3.40;2.33;;;22.80;93.00;;;;;;4987418;28;20022;-81
2021/07/18 11:39:01;;;;;;;2.97;2.30;;;22.80;91.40;;;;;;4989375;28;20042;-82
2021/07/18 11:41:28;;;;;;;5.90;2.83;;;22.90;92.20;;;;;;4972182;28;20033;-81
2021/07/18 11:43:56;;;;;;;5.78;2.95;;;23.00;92.10;;;;;;4971979;28;20076;-81
2021/07/18 11:46:22;;;;;;;5.18;2.95;;;23.00;92.40;;;;;;4971949;28;20037;-82
2021/07/18 11:48:50;;;;;;;2.92;2.63;;;23.00;93.30;;;;;;4971552;28;20037;-81
2021/07/18 11:51:16;;;;;;;5.13;3.03;;;23.00;92.90;;;;;;4971680;28;20034;-82
2021/07/18 11:53:46;;;;;;;2.88;2.60;;;23.10;91.30;;;;;;4971423;28;20084;-82
2021/07/18 11:56:24;;;;;;;4.13;2.90;;;23.10;91.60;;;;;;4987488;28;20066;-81
2021/07/18 11:58:50;;;;;;;5.55;3.38;;;23.20;92.30;;;;;;4987085;28;20036;-81
2021/07/18 12:01:29;;;;;;;4.80;2.78;;;23.10;92.80;;;;;;4987727;28;20101;-81
2021/07/18 12:03:54;;;;;;;3.90;2.80;;;23.20;91.30;;;;;;4987723;28;20117;-82
2021/07/18 12:06:20;;;;;;;4.57;3.08;;;23.20;91.80;;;;;;4971274;28;20121;-82
2021/07/18 12:08:46;;;;;;;7.05;3.20;;;23.20;92.50;;;;;;4970915;28;20064;-82
2021/07/18 12:11:14;;;;;;;8.35;3.65;;;23.30;91.50;;;;;;4971348;28;20038;-82
2021/07/18 12:13:44;;;;;;;7.93;3.10;;;23.40;91.30;;;;;;4971687;28;20527;-85
2021/07/18 12:16:09;;;;;;;3.50;2.83;;;23.50;91.80;;;;;;4971176;28;20022;-81
2021/07/18 12:18:46;;;;;;;5.18;2.92;;;23.50;92.10;;;;;;4986992;28;20034;-82
2021/07/18 12:21:28;;;;;;;7.63;3.30;;;23.50;92.50;;;;;;4987603;28;20037;-82
2021/07/18 12:24:20;;;;;;;3.47;3.17;;;23.50;92.00;;;;;;4987580;28;20041;-82
2021/07/18 12:26:50;;;;;;;4.15;3.33;;;23.50;91.90;;;;;;4988572;28;20568;-81
2021/07/18 12:29:15;;;;;;;5.47;3.30;;;23.60;91.80;;;;;;4986626;28;20030;-81
2021/07/18 12:31:42;;;;;;;5.10;3.60;;;23.60;92.20;;;;;;4986994;28;20512;-82
2021/07/18 12:34:08;;;;;;;3.67;3.28;;;23.70;91.80;;;;;;4970839;28;20070;-82
2021/07/18 12:36:56;;;;;;;4.68;3.67;;;23.70;92.00;;;;;;4987074;28;20105;-81
2021/07/18 12:39:23;;;;;;;3.72;2.92;;;23.70;91.20;;;;;;4987979;28;20105;-81
2021/07/18 12:41:49;;;;;;;3.75;3.05;;;23.80;91.70;;;;;;4971131;28;20121;-81
2021/07/18 12:44:16;;;;;;;8.45;4.07;;;23.90;90.90;;;;;;4970755;28;20030;-82
2021/07/18 12:46:43;;;;;;;10.73;3.28;;;23.90;90.70;;;;;;4971113;28;20030;-84
2021/07/18 12:49:12;;;;;;;6.55;3.42;;;24.00;91.40;;;;;;4986279;28;20030;-83
2021/07/18 12:51:38;;;;;;;5.57;3.72;;;24.00;90.60;;;;;;4988482;28;20042;-82
2021/07/18 12:54:04;;;;;;;5.13;3.53;;;24.00;91.10;;;;;;4986936;28;20034;-82
2021/07/18 12:56:29;;;;;;;5.97;3.78;;;24.00;90.50;;;;;;4986781;28;20027;-81
2021/07/18 12:58:55;;;;;;;8.07;3.72;;;24.00;90.60;;;;;;4986383;28;20709;-82
2021/07/18 13:01:28;;;;;;;6.10;3.80;;;24.10;90.10;;;;;;4970661;28;20568;-81
2021/07/18 13:04:05;;;;;;;6.40;3.80;;;24.00;90.20;;;;;;4970503;28;20038;-81
2021/07/18 13:06:39;;;;;;;4.07;3.25;;;24.10;89.90;;;;;;4986693;28;20062;-81
2021/07/18 13:09:04;;;;;;;5.32;4.07;;;24.00;90.30;;;;;;4986087;28;20397;-81
2021/07/18 13:11:37;;;;;;;5.97;4.18;;;24.10;90.40;;;;;;4986579;28;20065;-81
2021/07/18 13:14:22;;;;;;;7.05;4.05;;;24.10;90.90;;;;;;4986657;28;20042;-81
2021/07/18 13:16:48;;;;;;;5.35;3.97;;;24.10;91.10;;;;;;4987823;28;20101;-81
2021/07/18 13:19:14;;;;;;;6.97;4.40;;;24.10;91.40;;;;;;4970133;28;20164;-82
2021/07/18 13:21:40;;;;;;;5.57;3.90;;;24.10;91.30;;;;;;4986623;28;20021;-82
2021/07/18 13:24:06;;;;;;;7.45;3.63;;;24.20;90.30;;;;;;4986736;28;20026;-81
2021/07/18 13:26:36;;;;;;;5.35;3.75;;;24.30;91.20;;;;;;4973866;28;20179;-82
2021/07/18 13:29:19;;;;;;;7.10;4.13;;;24.40;90.50;;;;;;4963903;28;20035;-81
2021/07/18 13:31:48;;;;;;;4.55;4.00;;;24.50;88.60;;;;;;4972170;28;20418;-82
2021/07/18 13:34:14;;;;;;;5.10;4.10;;;24.70;88.90;;;;;;4969173;28;20030;-82
2021/07/18 13:36:40;;;;;;;5.95;3.97;;;24.70;88.70;;;;;;4986440;28;20120;-82
2021/07/18 13:39:15;;;;;;;5.50;3.67;;;24.80;89.50;;;;;;4969667;28;20026;-82
2021/07/18 13:41:52;;;;;;;4.18;3.72;;;24.90;90.10;;;;;;4970294;28;20057;-82
2021/07/18 13:44:17;;;;;;;5.13;3.88;;;24.90;90.70;;;;;;4971078;28;20477;-82
2021/07/18 13:46:43;;;;;;;6.55;4.15;;;24.80;89.30;;;;;;4970095;28;20045;-82
2021/07/18 13:49:08;;;;;;;10.77;4.07;;;24.90;88.10;;;;;;4969696;28;20030;-82
2021/07/18 13:51:33;;;;;;;8.02;4.47;;;25.00;86.20;;;;;;4968756;28;20055;-82
2021/07/18 13:53:59;;;;;;;9.45;4.10;;;25.00;88.40;;;;;;4968208;28;20393;-82
2021/07/18 13:56:25;;;;;;;6.63;4.40;;;25.00;88.50;;;;;;4969370;28;20030;-81
2021/07/18 13:58:51;;;;;;;7.70;4.72;;;25.00;88.70;;;;;;4969736;28;20066;-82
2021/07/18 14:01:16;;;;;;;4.22;3.83;;;25.00;90.40;;;;;;4971985;28;20042;-83
2021/07/18 14:03:42;;;;;;;5.25;4.30;;;25.10;90.70;;;;;;4969923;28;20131;-83
2021/07/18 14:06:07;;;;;;;7.80;4.55;;;25.20;90.00;;;;;;4976131;28;20714;-84
2021/07/18 14:08:33;;;;;;;6.32;3.85;;;25.30;88.70;;;;;;4973688;28;20568;-86
2021/07/18 14:10:59;;;;;;;5.53;4.20;;;25.40;89.40;;;;;;4974051;28;20034;-84
2021/07/18 14:13:24;;;;;;;8.00;4.07;;;25.50;88.30;;;;;;4957630;28;20122;-84
2021/07/18 14:15:50;;;;;;;5.00;4.20;;;25.50;89.20;;;;;;4973673;28;20425;-84
2021/07/18 14:18:15;;;;;;;8.25;4.28;;;25.50;86.40;;;;;;4956667;28;20026;-84
2021/07/18 14:20:41;;;;;;;5.88;4.30;;;25.50;88.60;;;;;;4973539;28;20062;-85
2021/07/18 14:23:08;;;;;;;7.22;4.38;;;25.50;88.40;;;;;;4957393;28;20113;-83
2021/07/18 14:25:34;;;;;;;6.88;4.82;;;25.50;87.40;;;;;;4957939;28;20034;-84
2021/07/18 14:28:01;;;;;;;7.57;4.20;;;25.40;89.70;;;;;;4957207;28;20448;-85
2021/07/18 14:30:28;;;;;;;9.80;4.63;;;25.40;89.50;;;;;;4973639;28;20117;-86
2021/07/18 14:32:54;;;;;;;6.15;3.97;;;25.40;88.70;;;;;;4958006;28;20077;-85
2021/07/18 14:35:20;;;;;;;11.98;5.18;;;25.40;90.00;;;;;;4957490;28;20683;-86
2021/07/18 14:37:46;;;;;;;7.70;5.03;;;25.40;90.00;;;;;;4957410;28;20030;-85
2021/07/18 14:40:13;;;;;;;10.60;4.30;;;25.40;90.20;;;;;;4958739;28;20085;-86
2021/07/18 14:42:39;;;;;;;25.33;5.85;;;25.40;88.50;;;;;;4957444;28;20030;-87
2021/07/18 14:45:06;;;;;;;402.73;27.65;;;25.40;88.60;;;;;;4957740;28;20034;-88
2021/07/18 14:47:32;;;;;;;9.77;4.85;;;25.50;89.10;;;;;;4957827;28;20057;-88
2021/07/18 14:49:57;;;;;;;6.13;4.55;;;25.60;88.60;;;;;;4973698;28;20073;-88
2021/07/18 14:52:23;;;;;;;5.50;4.32;;;25.50;85.60;;;;;;4970212;28;20034;-88
2021/07/18 14:54:48;;;;;;;7.15;4.50;;;25.50;86.50;;;;;;4969772;28;20030;-86
2021/07/18 14:57:14;;;;;;;4.80;4.05;;;25.50;88.70;;;;;;4985486;28;20133;-87
2021/07/18 14:59:39;;;;;;;5.60;4.07;;;25.60;88.90;;;;;;4969699;28;20077;-85
2021/07/18 15:02:06;;;;;;;7.60;4.75;;;25.70;88.70;;;;;;4969567;28;20055;-86
2021/07/18 15:04:31;;;;;;;7.03;4.60;;;25.80;87.50;;;;;;4969541;28;20065;-86
2021/07/18 15:06:57;;;;;;;7.18;4.78;;;25.90;89.20;;;;;;4969565;28;20573;-85
2021/07/18 15:09:22;;;;;;;7.45;5.20;;;26.00;87.50;;;;;;4969167;28;20066;-83
2021/07/18 15:11:48;;;;;;;8.32;4.78;;;26.00;88.20;;;;;;4969211;28;20034;-86
2021/07/18 15:14:13;;;;;;;5.30;4.35;;;26.20;87.80;;;;;;4970834;28;20069;-89
2021/07/18 15:16:39;;;;;;;6.07;4.60;;;26.20;86.70;;;;;;4984384;28;20039;-85
2021/07/18 15:19:04;;;;;;;5.05;4.38;;;26.40;85.60;;;;;;4968231;28;20027;-84
2021/07/18 15:21:30;;;;;;;8.57;4.85;;;26.70;85.70;;;;;;4969219;28;20058;-86
2021/07/18 15:23:55;;;;;;;5.50;4.43;;;27.20;81.20;;;;;;4970800;28;20034;-86
2021/07/18 15:26:21;;;;;;;5.00;4.50;;;27.40;80.90;;;;;;4968786;28;20524;-86
2021/07/18 15:28:47;;;;;;;5.13;4.20;;;27.80;81.50;;;;;;4952409;28;20038;-85
2021/07/18 15:31:13;;;;;;;7.63;4.22;;;28.20;79.90;;;;;;4953541;28;20050;-87
2021/07/18 15:33:38;;;;;;;6.88;3.70;;;29.00;70.70;;;;;;4953024;28;20041;-87
2021/07/18 15:36:04;;;;;;;7.55;3.97;;;30.00;66.50;;;;;;4957182;28;20030;-87
2021/07/18 15:38:30;;;;;;;7.93;4.15;;;30.90;63.00;;;;;;4971983;28;20034;-86
2021/07/18 15:40:57;;;;;;;5.13;3.90;;;31.60;58.10;;;;;;4968596;28;20027;-86
2021/07/18 15:43:22;;;;;;;5.45;3.80;;;32.30;53.30;;;;;;4955153;28;20089;-85
2021/07/18 15:45:48;;;;;;;4.68;3.78;;;32.80;54.20;;;;;;4968281;28;20038;-86
2021/07/18 15:48:14;;;;;;;5.18;3.67;;;33.30;52.10;;;;;;4960291;28;20026;-86
2021/07/18 15:50:39;;;;;;;5.60;4.25;;;33.60;51.70;;;;;;4956767;28;20037;-87
2021/07/18 15:53:05;;;;;;;4.63;3.55;;;33.60;49.80;;;;;;4956442;28;20034;-87
2021/07/18 15:55:30;;;;;;;5.10;3.95;;;33.20;49.40;;;;;;4971808;28;20485;-88
2021/07/18 15:57:56;;;;;;;3.90;3.53;;;32.70;52.30;;;;;;4954972;28;20035;-85
2021/07/18 16:00:24;;;;;;;4.90;3.70;;;32.60;52.70;;;;;;4965861;28;20029;-85
2021/07/18 16:02:50;;;;;;;4.60;3.83;;;32.70;51.50;;;;;;4949489;28;20121;-86
2021/07/18 16:05:15;;;;;;;4.95;4.07;;;32.90;50.70;;;;;;4982811;28;20027;-85
2021/07/18 16:07:43;;;;;;;5.57;3.85;;;32.80;50.10;;;;;;4954804;28;20035;-86
2021/07/18 16:10:12;;;;;;;7.20;4.10;;;32.50;49.80;;;;;;4971661;28;20425;-86
2021/07/18 16:12:37;;;;;;;4.65;3.65;;;32.00;52.60;;;;;;4989684;28;20058;-85
2021/07/18 16:15:04;;;;;;;7.70;4.60;;;31.50;53.70;;;;;;4986299;28;20070;-84
2021/07/18 16:17:30;;;;;;;4.78;4.38;;;30.90;53.90;;;;;;4956232;28;20061;-85
2021/07/18 16:19:56;;;;;;;4.55;4.15;;;30.50;56.20;;;;;;4992730;28;20169;-85
2021/07/18 16:22:22;;;;;;;5.65;4.55;;;30.10;58.10;;;;;;4970248;28;20080;-84
2021/07/18 16:24:47;;;;;;;8.05;5.07;;;29.80;56.00;;;;;;4967352;28;20039;-84
2021/07/18 16:27:21;;;;;;;4.85;4.20;;;29.50;56.10;;;;;;4974158;28;20113;-85
2021/07/18 16:29:47;;;;;;;7.50;5.05;;;29.20;58.30;;;;;;4991554;28;20039;-87
2021/07/18 16:32:13;;;;;;;6.88;5.95;;;29.00;58.90;;;;;;4989722;28;20200;-86
2021/07/18 16:34:38;;;;;;;7.20;5.55;;;28.80;58.80;;;;;;5006704;28;20041;-86
2021/07/18 16:37:05;;;;;;;7.57;5.97;;;28.70;58.50;;;;;;4979524;28;20505;-85
2021/07/18 16:39:31;;;;;;;7.65;5.53;;;28.50;60.70;;;;;;4970406;28;20034;-85
2021/07/18 16:41:56;;;;;;;13.48;5.00;;;28.40;60.10;;;;;;4967180;28;20125;-85
2021/07/18 16:44:23;;;;;;;28.50;6.32;;;28.30;62.40;;;;;;4951409;28;20077;-85
2021/07/18 16:46:49;;;;;;;9.95;5.18;;;28.20;62.80;;;;;;4951333;28;20030;-85
2021/07/18 16:49:14;;;;;;;5.97;5.38;;;28.20;63.50;;;;;;4950957;28;20031;-85
2021/07/18 16:51:40;;;;;;;5.78;5.10;;;28.10;63.30;;;;;;4967534;28;20045;-86
2021/07/18 16:54:06;;;;;;;6.20;5.18;;;28.10;64.10;;;;;;4951253;28;20026;-86
2021/07/18 16:56:31;;;;;;;5.65;5.10;;;28.00;62.40;;;;;;4951514;28;20035;-86
2021/07/18 16:58:57;;;;;;;5.55;4.93;;;27.90;63.30;;;;;;4950589;28;20186;-85
2021/07/18 17:01:22;;;;;;;10.43;5.10;;;27.90;62.00;;;;;;4951159;28;20127;-85
2021/07/18 17:03:48;;;;;;;8.38;5.35;;;27.80;64.20;;;;;;4950837;28;20127;-85
2021/07/18 17:06:13;;;;;;;5.55;5.05;;;27.80;65.20;;;;;;4950730;28;20030;-86
2021/07/18 17:08:39;;;;;;;6.75;5.20;;;27.70;64.40;;;;;;4950771;28;20506;-86
2021/07/18 17:11:07;;;;;;;6.68;4.85;;;28.00;65.50;;;;;;4967533;28;20740;-85
2021/07/18 17:13:34;;;;;;;6.03;5.25;;;28.30;64.10;;;;;;4951700;28;20039;-85
2021/07/18 17:15:59;;;;;;;7.25;4.75;;;28.70;59.80;;;;;;4951092;28;20106;-85
2021/07/18 17:18:25;;;;;;;7.30;5.38;;;28.90;60.20;;;;;;4942267;28;20528;-85
2021/07/18 17:20:51;;;;;;;7.00;4.63;;;28.80;60.00;;;;;;4951302;28;20027;-87
2021/07/18 17:23:16;;;;;;;7.30;4.68;;;28.70;59.90;;;;;;4955901;28;20027;-85
2021/07/18 17:25:42;;;;;;;7.78;4.85;;;28.40;58.70;;;;;;4983231;28;20047;-88
2021/07/18 17:28:08;;;;;;;8.02;5.40;;;28.30;62.10;;;;;;4976108;28;20053;-89
2021/07/18 17:30:34;;;;;;;5.50;4.82;;;28.00;62.60;;;;;;4987760;28;20034;-88
2021/07/18 17:33:00;;;;;;;6.35;5.03;;;27.90;63.00;;;;;;5002919;28;20034;-87
2021/07/18 17:35:26;;;;;;;6.30;4.90;;;27.70;63.90;;;;;;4973117;28;20038;-89
2021/07/18 17:37:52;;;;;;;6.85;4.75;;;27.50;63.80;;;;;;4974668;28;20124;-87
2021/07/18 17:40:18;;;;;;;6.85;4.85;;;27.40;65.60;;;;;;4970641;28;20033;-86
2021/07/18 17:42:43;;;;;;;7.32;5.03;;;27.30;66.20;;;;;;4970839;28;20118;-86
2021/07/18 17:45:10;;;;;;;5.68;5.13;;;27.20;67.30;;;;;;4973766;28;20028;-85
2021/07/18 17:47:38;;;;;;;10.05;5.32;;;27.10;68.10;;;;;;4954457;28;20050;-85
2021/07/18 17:50:05;;;;;;;6.25;4.63;;;27.00;68.90;;;;;;4970549;28;20502;-86
2021/07/18 17:52:31;;;;;;;7.07;4.97;;;27.00;69.30;;;;;;4981515;28;20557;-87
2021/07/18 17:54:56;;;;;;;7.43;4.47;;;26.90;68.10;;;;;;4957716;28;20033;-86
2021/07/18 17:57:22;;;;;;;7.93;4.82;;;26.80;68.60;;;;;;4956774;28;20030;-87
2021/07/18 17:59:47;;;;;;;8.75;4.75;;;26.70;70.50;;;;;;4957562;28;20596;-87
2021/07/18 18:02:13;;;;;;;4.97;4.32;;;26.70;71.10;;;;;;4973715;28;20094;-87
2021/07/18 18:04:38;;;;;;;6.05;5.30;;;26.60;69.20;;;;;;4963587;28;20034;-87
2021/07/18 18:07:04;;;;;;;7.55;5.32;;;26.50;71.40;;;;;;4957042;28;20034;-88
2021/07/18 18:09:29;;;;;;;5.80;4.60;;;26.40;70.30;;;;;;4957467;28;20454;-88
2021/07/18 18:11:55;;;;;;;11.45;5.68;;;26.40;70.70;;;;;;4957363;28;20086;-86
2021/07/18 18:14:20;;;;;;;7.80;5.40;;;26.30;73.50;;;;;;4953608;28;20596;-87
2021/07/18 18:16:46;;;;;;;6.40;4.55;;;26.20;70.50;;;;;;4969461;28;20090;-86
2021/07/18 18:19:12;;;;;;;7.93;5.25;;;26.20;71.80;;;;;;4969917;28;20480;-86
2021/07/18 18:21:43;;;;;;;6.90;4.45;;;26.10;73.00;;;;;;4985551;28;20061;-86
2021/07/18 18:24:10;;;;;;;10.50;5.68;;;26.00;74.40;;;;;;4976667;28;20089;-86
2021/07/18 18:26:39;;;;;;;7.82;5.50;;;26.00;76.90;;;;;;4970513;28;20034;-87
2021/07/18 18:29:05;;;;;;;7.20;5.15;;;26.00;74.90;;;;;;4989446;28;20567;-87
2021/07/18 18:31:30;;;;;;;7.63;5.22;;;25.90;78.80;;;;;;5008559;28;20121;-87
2021/07/18 18:33:56;;;;;;;5.88;4.60;;;25.80;80.10;;;;;;5008651;28;20025;-87
2021/07/18 18:36:21;;;;;;;7.75;4.80;;;25.80;80.20;;;;;;5008945;28;20065;-87
2021/07/18 18:38:47;;;;;;;4.68;4.07;;;25.70;81.00;;;;;;5008784;28;20530;-85
2021/07/18 18:41:29;;;;;;;9.05;4.07;;;25.60;81.70;;;;;;5067198;22;20387;-83
2021/07/18 18:44:19;;;;;;;6.78;4.03;;;25.60;80.70;;;;;;5008775;28;20041;-83
2021/07/18 18:46:44;;;;;;;4.30;3.88;;;25.50;81.10;;;;;;5029728;28;20343;-83
2021/07/18 18:49:10;;;;;;;4.80;3.40;;;25.40;80.20;;;;;;5011438;28;20104;-83
2021/07/18 18:51:39;;;;;;;4.30;3.80;;;25.30;81.10;;;;;;5001375;28;20567;-83
2021/07/18 18:54:05;;;;;;;6.00;3.60;;;25.30;85.10;;;;;;4987903;28;20034;-83
2021/07/18 18:56:32;;;;;;;4.97;3.80;;;25.30;81.70;;;;;;4969647;28;20084;-85
2021/07/18 18:59:00;;;;;;;4.93;3.70;;;25.10;83.20;;;;;;5003635;28;20035;-83
2021/07/18 19:01:26;;;;;;;5.88;4.32;;;25.00;82.80;;;;;;4971704;28;20037;-83
2021/07/18 19:03:53;;;;;;;4.13;3.47;;;25.00;82.70;;;;;;4972004;28;20493;-83
2021/07/18 19:06:22;;;;;;;7.15;4.10;;;24.90;83.90;;;;;;4981098;28;20072;-84
2021/07/18 19:08:48;;;;;;;4.30;3.90;;;24.90;82.80;;;;;;4971639;28;20031;-83
2021/07/18 19:11:14;;;;;;;4.75;4.20;;;24.70;84.40;;;;;;4971674;28;20036;-83
2021/07/18 19:13:40;;;;;;;7.05;4.30;;;24.70;88.60;;;;;;4988685;28;20034;-83
2021/07/18 19:16:07;;;;;;;8.82;5.28;;;24.80;90.30;;;;;;4984001;28;20025;-84
2021/07/18 19:18:32;;;;;;;8.68;5.93;;;24.70;91.30;;;;;;5007127;28;20364;-84
2021/07/18 19:20:58;;;;;;;10.38;5.03;;;24.60;90.60;;;;;;5008932;28;20073;-83
2021/07/18 19:23:25;;;;;;;13.43;4.82;;;24.60;92.20;;;;;;4976203;28;20088;-82
2021/07/18 19:25:51;;;;;;;8.38;4.55;;;24.50;90.70;;;;;;4990836;28;20038;-84
2021/07/18 19:28:16;;;;;;;223.45;23.55;;;24.40;90.70;;;;;;4988863;28;20049;-85
2021/07/18 19:30:42;;;;;;;9.52;3.92;;;24.40;92.60;;;;;;4988859;28;20040;-84
2021/07/18 19:33:07;;;;;;;7.15;4.22;;;24.30;92.30;;;;;;4988289;28;20136;-85
2021/07/18 19:35:33;;;;;;;5.40;3.55;;;24.30;93.00;;;;;;4988211;28;20034;-83
2021/07/18 19:37:59;;;;;;;4.63;3.90;;;24.20;92.60;;;;;;5004379;28;20022;-82
2021/07/18 19:40:25;;;;;;;7.43;3.35;;;24.20;91.70;;;;;;4991238;28;20029;-83
2021/07/18 19:42:52;;;;;;;9.85;3.70;;;24.10;91.80;;;;;;4974582;28;20038;-84
2021/07/18 19:45:17;;;;;;;5.55;3.72;;;24.00;92.10;;;;;;4991538;28;20026;-83
2021/07/18 19:47:43;;;;;;;5.03;3.75;;;24.00;91.10;;;;;;4970134;28;20691;-83
2021/07/18 19:50:10;;;;;;;5.45;3.53;;;23.90;93.30;;;;;;4977709;28;20033;-84
2021/07/18 19:52:39;;;;;;;7.70;3.70;;;23.90;92.30;;;;;;5005749;28;20033;-85
2021/07/18 19:55:08;;;;;;;8.52;3.50;;;23.80;92.30;;;;;;4990787;28;20080;-84
2021/07/18 19:57:35;;;;;;;8.00;3.45;;;23.80;92.30;;;;;;5006267;28;20531;-84
2021/07/18 20:00:01;;;;;;;7.63;3.38;;;23.70;93.70;;;;;;4971464;28;20038;-83
2021/07/18 20:02:27;;;;;;;7.72;3.55;;;23.60;94.00;;;;;;4971340;28;20057;-85
2021/07/18 20:04:52;;;;;;;7.45;3.70;;;23.60;93.70;;;;;;4979651;28;20144;-83
2021/07/18 20:07:18;;;;;;;6.40;3.50;;;23.50;93.50;;;;;;4987108;28;20057;-85
2021/07/18 20:09:43;;;;;;;4.88;3.50;;;23.50;93.60;;;;;;4980247;28;20033;-84
2021/07/18 20:12:09;;;;;;;9.80;3.63;;;23.50;93.10;;;;;;5012668;28;20523;-85
2021/07/18 20:14:34;;;;;;;4.90;2.97;;;23.40;93.80;;;;;;4990593;28;20037;-85
2021/07/18 20:17:00;;;;;;;5.20;3.30;;;23.40;94.00;;;;;;4991760;28;20040;-82
2021/07/18 20:19:26;;;;;;;10.50;3.25;;;23.30;93.80;;;;;;5005421;28;20040;-83
2021/07/18 20:21:51;;;;;;;6.80;3.65;;;23.30;92.80;;;;;;4987050;28;20026;-83
2021/07/18 20:24:17;;;;;;;7.60;3.42;;;23.20;92.20;;;;;;4970949;28;20061;-84
2021/07/18 20:26:42;;;;;;;3.28;2.83;;;23.20;94.10;;;;;;4992071;28;20677;-84
2021/07/18 20:29:08;;;;;;;5.68;2.72;;;23.10;92.40;;;;;;5003362;28;20053;-84
2021/07/18 20:31:33;;;;;;;6.30;2.58;;;23.00;90.20;;;;;;4975246;28;20072;-83
2021/07/18 20:33:59;;;;;;;6.18;2.50;;;22.90;90.70;;;;;;4973016;28;20066;-83
2021/07/18 20:36:25;;;;;;;4.13;2.88;;;22.80;90.50;;;;;;5014308;28;20022;-84
2021/07/18 20:38:51;;;;;;;5.75;2.55;;;22.80;92.70;;;;;;4981098;28;20040;-83
2021/07/18 20:41:16;;;;;;;5.78;2.40;;;22.80;92.50;;;;;;5005887;28;20037;-82
2021/07/18 20:43:42;;;;;;;3.50;2.42;;;22.70;90.10;;;;;;4990133;28;20042;-83
2021/07/18 20:46:08;;;;;;;7.03;2.50;;;22.70;91.90;;;;;;5016141;28;20028;-83
2021/07/18 20:48:34;;;;;;;5.07;2.90;;;22.60;92.10;;;;;;5006418;28;20059;-84
2021/07/18 20:50:59;;;;;;;6.43;2.45;;;22.60;93.00;;;;;;4988804;28;20030;-84
2021/07/18 20:53:25;;;;;;;4.85;2.70;;;22.50;92.40;;;;;;4989341;28;20102;-84
2021/07/18 20:55:50;;;;;;;4.18;2.60;;;22.50;92.70;;;;;;4969141;28;20496;-84
2021/07/18 20:58:16;;;;;;;5.00;2.30;;;22.40;93.40;;;;;;4989251;28;20083;-84
2021/07/18 21:00:41;;;;;;;5.82;3.08;;;22.40;93.30;;;;;;4989972;28;20018;-84
2021/07/18 21:03:12;;;;;;;6.22;2.75;;;22.40;93.00;;;;;;4988848;28;20429;-84
2021/07/18 21:05:37;;;;;;;3.05;2.53;;;22.30;92.40;;;;;;5014702;28;20071;-84
2021/07/18 21:08:04;;;;;;;4.10;2.75;;;22.30;92.40;;;;;;4978109;28;20436;-83
2021/07/18 21:10:31;;;;;;;4.03;3.00;;;22.20;93.40;;;;;;4973489;28;20531;-84
2021/07/18 21:12:57;;;;;;;5.78;2.72;;;22.20;94.10;;;;;;5005140;28;20030;-84
2021/07/18 21:15:23;;;;;;;5.82;2.72;;;22.10;94.30;;;;;;5001961;28;20021;-83
2021/07/18 21:17:49;;;;;;;3.70;2.50;;;22.10;94.00;;;;;;5006395;28;20065;-83
2021/07/18 21:20:20;;;;;;;6.13;3.08;;;22.10;92.70;;;;;;5015839;28;20065;-84
2021/07/18 21:22:46;;;;;;;;;;;22.00;91.20;;;;;;4975470;28;20034;-84
2021/07/18 21:25:11;;;;;;;8.82;2.97;;;22.00;93.10;;;;;;5022268;28;19917;-84
2021/07/18 21:27:37;;;;;;;6.57;2.45;;;21.90;94.10;;;;;;4978706;28;20038;-84
2021/07/18 21:30:03;;;;;;;7.82;3.13;;;21.90;94.10;;;;;;4986560;28;20393;-84
2021/07/18 21:32:28;;;;;;;4.22;3.10;;;21.80;93.20;;;;;;5004767;28;20053;-84
2021/07/18 21:34:54;;;;;;;5.05;2.83;;;21.80;93.40;;;;;;4992877;28;20120;-84
2021/07/18 21:37:19;;;;;;;4.63;2.90;;;21.70;93.40;;;;;;4996104;28;20033;-84
2021/07/18 21:39:45;;;;;;;3.95;2.78;;;21.60;94.00;;;;;;5005887;28;20030;-84
2021/07/18 21:42:11;;;;;;;4.20;2.50;;;21.60;94.00;;;;;;4985998;28;20030;-83
2021/07/18 21:44:36;;;;;;;6.18;2.78;;;21.50;93.80;;;;;;4969646;28;20081;-83
2021/07/18 21:47:02;;;;;;;3.45;2.50;;;21.50;94.60;;;;;;4955269;28;20696;-83
2021/07/18 21:49:28;;;;;;;4.28;2.88;;;21.50;93.60;;;;;;4983062;28;20610;-84
2021/07/18 21:51:53;;;;;;;4.95;2.80;;;21.40;93.00;;;;;;5025400;28;20032;-84
2021/07/18 21:54:19;;;;;;;4.50;3.00;;;21.40;93.90;;;;;;4992568;28;20030;-84
2021/07/18 21:56:44;;;;;;;5.50;3.00;;;21.40;94.90;;;;;;4975788;28;20023;-83
2021/07/18 21:59:10;;;;;;;8.98;3.55;;;21.30;94.30;;;;;;5013053;28;20037;-83
2021/07/18 22:01:36;;;;;;;3.45;3.13;;;21.30;94.50;;;;;;5005473;28;20778;-84
2021/07/18 22:04:01;;;;;;;4.60;2.67;;;21.30;95.30;;;;;;4972580;28;20102;-84